Time;durP1;ratioP1;P1;durP2;ratioP2;P2;SDS_P1;SDS_P2;PMS_P1;PMS_P2;Temp;Humidity;BMP_temperature;BMP_pressure;BME280_temperature;BME280_humidity;BME280_pressure;Samples;Min_cycle;Max_cycle;Signal;HPM_P1;HPM_P2
2022/10/13 00:00:41;;;;;;;3.10;2.80;;;;;;;;;;5072723;28;20079;-72
2022/10/13 00:03:07;;;;;;;5.25;2.85;;;;;;;;;;5072440;28;20407;-72
2022/10/13 00:05:34;;;;;;;5.78;3.65;;;;;;;;;;5072380;28;20460;-71
2022/10/13 00:08:00;;;;;;;4.07;2.85;;;;;;;;;;5072348;28;20056;-71
2022/10/13 00:10:26;;;;;;;5.20;3.83;;;;;;;;;;5072469;28;20048;-71
2022/10/13 00:12:53;;;;;;;5.13;3.40;;;;;;;;;;5072536;28;20059;-70
2022/10/13 00:15:19;;;;;;;3.95;3.45;;;;;;;;;;5072132;28;20040;-70
2022/10/13 00:17:46;;;;;;;5.10;3.65;;;;;;;;;;5072163;28;20060;-70
2022/10/13 00:20:12;;;;;;;4.97;3.58;;;;;;;;;;5072308;28;20045;-70
2022/10/13 00:22:38;;;;;;;5.68;3.60;;;;;;;;;;5072024;28;20052;-70
2022/10/13 00:25:05;;;;;;;5.88;3.40;;;;;;;;;;5072202;28;20049;-70
2022/10/13 00:27:31;;;;;;;5.38;3.50;;;;;;;;;;5072037;28;20044;-70
2022/10/13 00:29:58;;;;;;;4.90;3.55;;;;;;;;;;5072283;28;20055;-69
2022/10/13 00:32:24;;;;;;;6.68;3.53;;;;;;;;;;5071889;28;20087;-70
2022/10/13 00:34:51;;;;;;;5.43;3.75;;;;;;;;;;5071818;28;20065;-70
2022/10/13 00:37:17;;;;;;;3.92;3.00;;;;;;;;;;5071996;28;20044;-69
2022/10/13 00:39:43;;;;;;;4.22;3.83;;;;;;;;;;5072107;28;20044;-69
2022/10/13 00:42:11;;;;;;;5.85;4.45;;;;;;;;;;5071929;28;20045;-69
2022/10/13 00:44:56;;;;;;;7.57;4.40;;;;;;;;;;5072002;28;20044;-69
2022/10/13 00:47:24;;;;;;;4.10;3.22;;;;;;;;;;5071626;28;20068;-69
2022/10/13 00:49:51;;;;;;;5.20;3.88;;;;;;;;;;5071939;28;20059;-69
2022/10/13 00:52:19;;;;;;;5.38;4.35;;;;;;;;;;5071638;28;20058;-69
2022/10/13 00:54:47;;;;;;;6.45;3.85;;;;;;;;;;5071556;28;20044;-69
2022/10/13 00:57:14;;;;;;;5.80;3.50;;;;;;;;;;5071905;28;20071;-70
2022/10/13 00:59:41;;;;;;;4.25;2.88;;;;;;;;;;5071777;28;20067;-70
2022/10/13 01:02:07;;;;;;;4.60;3.00;;;;;;;;;;5071459;28;20044;-70
2022/10/13 01:04:36;;;;;;;3.90;3.10;;;;;;;;;;5071672;28;20063;-70
2022/10/13 01:07:03;;;;;;;3.58;2.80;;;;;;;;;;5071802;28;20052;-70
2022/10/13 01:09:36;;;;;;;4.53;3.08;;;;;;;;;;5071516;28;20052;-70
2022/10/13 01:12:14;;;;;;;5.60;3.50;;;;;;;;;;5071782;28;20385;-70
2022/10/13 01:15:00;;;;;;;11.10;5.25;;;;;;;;;;5071955;28;20515;-70
2022/10/13 01:17:30;;;;;;;7.30;4.30;;;;;;;;;;5075846;28;20045;-70
2022/10/13 01:20:06;;;;;;;6.65;3.72;;;;;;;;;;5075671;28;20392;-70
2022/10/13 01:22:42;;;;;;;5.35;3.30;;;;;;;;;;5075483;28;20056;-69
2022/10/13 01:25:11;;;;;;;7.32;3.58;;;;;;;;;;5075570;28;20060;-69
2022/10/13 01:27:47;;;;;;;5.63;3.20;;;;;;;;;;5075645;28;20079;-70
2022/10/13 01:30:22;;;;;;;4.22;2.90;;;;;;;;;;5075490;28;20062;-69
2022/10/13 01:33:03;;;;;;;6.15;2.63;;;;;;;;;;5075434;28;20064;-70
2022/10/13 01:35:29;;;;;;;5.20;2.75;;;;;;;;;;5075079;28;20052;-69
2022/10/13 01:38:12;;;;;;;4.45;2.70;;;;;;;;;;5068813;28;20068;-69
2022/10/13 01:40:41;;;;;;;6.32;2.70;;;;;;;;;;5070419;28;20439;-70
2022/10/13 01:43:15;;;;;;;6.13;2.65;;;;;;;;;;5075134;28;20074;-69
2022/10/13 01:45:46;;;;;;;5.38;2.30;;;;;;;;;;5075204;28;20056;-69
2022/10/13 01:48:14;;;;;;;5.95;2.53;;;;;;;;;;5075216;28;20062;-69
2022/10/13 01:50:41;;;;;;;5.13;2.58;;;;;;;;;;5075074;28;20048;-69
2022/10/13 01:53:09;;;;;;;6.18;2.90;;;;;;;;;;5074936;28;20048;-69
2022/10/13 01:55:36;;;;;;;4.68;2.80;;;;;;;;;;5074777;28;20044;-68
2022/10/13 01:58:02;;;;;;;7.47;3.25;;;;;;;;;;5073551;28;20044;-69
2022/10/13 02:00:38;;;;;;;5.05;2.97;;;;;;;;;;5074706;28;20522;-68
2022/10/13 02:03:09;;;;;;;11.20;3.25;;;;;;;;;;5075037;28;20476;-69
2022/10/13 02:05:51;;;;;;;6.18;2.90;;;;;;;;;;5074718;28;20126;-68
2022/10/13 02:08:23;;;;;;;7.82;3.72;;;;;;;;;;5075049;28;20048;-69
2022/10/13 02:10:54;;;;;;;6.57;3.40;;;;;;;;;;5074850;28;20055;-68
2022/10/13 02:13:22;;;;;;;6.32;3.50;;;;;;;;;;5074807;28;20056;-68
2022/10/13 02:15:51;;;;;;;6.88;3.58;;;;;;;;;;5074623;28;20075;-68
2022/10/13 02:18:21;;;;;;;4.70;3.45;;;;;;;;;;5074454;28;20048;-68
2022/10/13 02:20:49;;;;;;;6.95;3.90;;;;;;;;;;5074659;28;20044;-68
2022/10/13 02:23:16;;;;;;;5.93;3.63;;;;;;;;;;5074690;28;20040;-68
2022/10/13 02:25:43;;;;;;;7.87;3.87;;;;;;;;;;5074403;28;20079;-68
2022/10/13 02:28:11;;;;;;;7.70;3.75;;;;;;;;;;5074459;28;20285;-68
2022/10/13 02:30:38;;;;;;;6.35;3.75;;;;;;;;;;5074202;28;20515;-68
2022/10/13 02:33:04;;;;;;;8.48;4.50;;;;;;;;;;5074249;28;20565;-68
2022/10/13 02:35:31;;;;;;;8.40;4.47;;;;;;;;;;5073815;28;20150;-68
2022/10/13 02:37:58;;;;;;;5.70;3.92;;;;;;;;;;5074461;28;20044;-68
2022/10/13 02:40:25;;;;;;;4.53;3.75;;;;;;;;;;5074248;28;20070;-68
2022/10/13 02:42:51;;;;;;;5.82;3.40;;;;;;;;;;5074044;28;20059;-68
2022/10/13 02:45:18;;;;;;;7.85;3.88;;;;;;;;;;5074276;28;20067;-68
2022/10/13 02:47:44;;;;;;;8.40;3.05;;;;;;;;;;5073795;28;20051;-68
2022/10/13 02:50:11;;;;;;;6.22;2.95;;;;;;;;;;5073853;28;20483;-68
2022/10/13 02:52:37;;;;;;;5.47;3.42;;;;;;;;;;5074044;28;20055;-68
2022/10/13 02:55:04;;;;;;;7.07;2.70;;;;;;;;;;5073838;28;20096;-68
2022/10/13 02:57:30;;;;;;;10.57;3.15;;;;;;;;;;5074025;28;20051;-68
2022/10/13 02:59:56;;;;;;;23.88;4.80;;;;;;;;;;5073840;28;20070;-68
2022/10/13 03:02:24;;;;;;;6.45;2.90;;;;;;;;;;5073573;28;20460;-68
2022/10/13 03:04:51;;;;;;;6.55;3.38;;;;;;;;;;5073593;28;20052;-68
2022/10/13 03:07:17;;;;;;;5.18;3.10;;;;;;;;;;5073562;28;20052;-68
2022/10/13 03:09:43;;;;;;;16.33;3.50;;;;;;;;;;5073494;28;20060;-68
2022/10/13 03:12:10;;;;;;;24.60;3.65;;;;;;;;;;5073423;28;20059;-68
2022/10/13 03:14:36;;;;;;;5.60;2.10;;;;;;;;;;5067113;28;20124;-68
2022/10/13 03:17:03;;;;;;;6.55;2.08;;;;;;;;;;5073282;28;20050;-68
2022/10/13 03:19:30;;;;;;;4.93;2.80;;;;;;;;;;5073281;28;20134;-68
2022/10/13 03:21:56;;;;;;;3.60;2.22;;;;;;;;;;5073251;28;20045;-68
2022/10/13 03:24:23;;;;;;;4.53;2.25;;;;;;;;;;5073283;28;20049;-68
2022/10/13 03:26:49;;;;;;;2.45;2.20;;;;;;;;;;5073609;28;20982;-68
2022/10/13 03:29:17;;;;;;;4.03;2.03;;;;;;;;;;5073102;28;20056;-68
2022/10/13 03:31:43;;;;;;;7.85;2.53;;;;;;;;;;5073005;28;20496;-68
2022/10/13 03:34:10;;;;;;;8.95;3.40;;;;;;;;;;5073081;28;20428;-68
2022/10/13 03:36:37;;;;;;;32.23;4.47;;;;;;;;;;5072897;28;20052;-68
2022/10/13 03:39:03;;;;;;;20.13;4.05;;;;;;;;;;5072789;28;20283;-68
2022/10/13 03:41:30;;;;;;;20.15;3.90;;;;;;;;;;5072903;28;20058;-68
2022/10/13 03:43:56;;;;;;;21.73;3.75;;;;;;;;;;5072744;28;20059;-68
2022/10/13 03:46:23;;;;;;;34.00;4.20;;;;;;;;;;5072759;28;20056;-68
2022/10/13 03:48:50;;;;;;;33.40;3.38;;;;;;;;;;5072908;28;20392;-68
2022/10/13 03:51:17;;;;;;;16.67;3.47;;;;;;;;;;5072733;28;20056;-68
2022/10/13 03:53:44;;;;;;;11.27;3.75;;;;;;;;;;5072631;28;20052;-67
2022/10/13 03:56:14;;;;;;;16.00;2.70;;;;;;;;;;5072527;28;20502;-68
2022/10/13 03:58:41;;;;;;;36.70;3.90;;;;;;;;;;5072420;28;20045;-68
2022/10/13 04:01:08;;;;;;;31.48;3.70;;;;;;;;;;5072686;28;20439;-68
2022/10/13 04:03:34;;;;;;;20.05;3.78;;;;;;;;;;5072731;28;20048;-68
2022/10/13 04:06:04;;;;;;;23.90;3.70;;;;;;;;;;5072586;28;20049;-68
2022/10/13 04:08:32;;;;;;;13.23;2.78;;;;;;;;;;5072783;28;20056;-68
2022/10/13 04:11:09;;;;;;;10.02;2.50;;;;;;;;;;5072494;28;20048;-68
2022/10/13 04:13:35;;;;;;;6.20;2.50;;;;;;;;;;5072303;28;20496;-68
2022/10/13 04:16:06;;;;;;;3.92;2.10;;;;;;;;;;5072412;28;20062;-68
2022/10/13 04:18:32;;;;;;;3.00;2.70;;;;;;;;;;5072240;28;20566;-68
2022/10/13 04:20:59;;;;;;;3.28;2.42;;;;;;;;;;5072183;28;20051;-68
2022/10/13 04:23:25;;;;;;;2.97;2.38;;;;;;;;;;5072260;28;20044;-68
2022/10/13 04:25:52;;;;;;;3.28;2.50;;;;;;;;;;5072409;28;20052;-68
2022/10/13 04:28:18;;;;;;;18.30;2.75;;;;;;;;;;5072267;28;20048;-67
2022/10/13 04:30:44;;;;;;;2.67;1.70;;;;;;;;;;5071989;28;20052;-68
2022/10/13 04:33:15;;;;;;;3.78;2.22;;;;;;;;;;5072291;28;20075;-68
2022/10/13 04:35:41;;;;;;;8.90;3.05;;;;;;;;;;5071705;28;20078;-68
2022/10/13 04:38:08;;;;;;;13.35;3.50;;;;;;;;;;5072082;28;20044;-68
2022/10/13 04:40:34;;;;;;;8.60;3.80;;;;;;;;;;5072165;28;20400;-68
2022/10/13 04:43:01;;;;;;;19.35;11.77;;;;;;;;;;5072023;28;20045;-67
2022/10/13 04:45:27;;;;;;;6.88;6.00;;;;;;;;;;5071930;28;20419;-68
2022/10/13 04:47:53;;;;;;;13.52;8.95;;;;;;;;;;5072037;28;20052;-68
2022/10/13 04:50:20;;;;;;;7.30;6.10;;;;;;;;;;5071161;28;20059;-68
2022/10/13 04:52:46;;;;;;;5.25;4.35;;;;;;;;;;5071634;28;20496;-68
2022/10/13 04:55:13;;;;;;;9.52;4.18;;;;;;;;;;5071848;28;20388;-68
2022/10/13 04:57:39;;;;;;;7.68;5.20;;;;;;;;;;5071807;28;20040;-68
2022/10/13 05:00:06;;;;;;;11.73;5.85;;;;;;;;;;5071577;28;20050;-68
2022/10/13 05:02:35;;;;;;;10.88;5.78;;;;;;;;;;5071553;28;20503;-68
2022/10/13 05:05:02;;;;;;;12.43;5.55;;;;;;;;;;5072121;28;20055;-68
2022/10/13 05:07:29;;;;;;;7.38;4.30;;;;;;;;;;5071759;28;20051;-68
2022/10/13 05:09:56;;;;;;;20.55;4.30;;;;;;;;;;5070533;28;20063;-67
2022/10/13 05:12:22;;;;;;;20.85;4.15;;;;;;;;;;5071572;28;20037;-68
2022/10/13 05:14:49;;;;;;;13.88;3.53;;;;;;;;;;5071516;28;20484;-68
2022/10/13 05:17:15;;;;;;;8.98;3.70;;;;;;;;;;5071386;28;20381;-68
2022/10/13 05:19:41;;;;;;;5.65;3.35;;;;;;;;;;5071687;28;20048;-68
2022/10/13 05:22:08;;;;;;;8.82;5.28;;;;;;;;;;5071337;28;20484;-68
2022/10/13 05:24:37;;;;;;;16.30;4.50;;;;;;;;;;5071636;28;20070;-68
2022/10/13 05:27:11;;;;;;;20.88;5.22;;;;;;;;;;5070409;28;20501;-68
2022/10/13 05:29:37;;;;;;;27.55;5.18;;;;;;;;;;5071447;28;20472;-68
2022/10/13 05:32:04;;;;;;;17.42;3.88;;;;;;;;;;5071864;28;20056;-68
2022/10/13 05:34:31;;;;;;;18.52;3.92;;;;;;;;;;5071270;28;20052;-69
2022/10/13 05:36:58;;;;;;;37.90;5.30;;;;;;;;;;5071576;28;20084;-68
2022/10/13 05:39:25;;;;;;;28.43;4.27;;;;;;;;;;5071480;28;20041;-68
2022/10/13 05:41:51;;;;;;;20.73;3.40;;;;;;;;;;5071133;28;20492;-68
2022/10/13 05:44:17;;;;;;;23.00;3.95;;;;;;;;;;5071518;28;20403;-68
2022/10/13 05:46:44;;;;;;;18.45;3.70;;;;;;;;;;5071081;28;20070;-68
2022/10/13 05:49:10;;;;;;;27.83;4.18;;;;;;;;;;5071467;28;20049;-68
2022/10/13 05:51:39;;;;;;;29.65;3.40;;;;;;;;;;5071310;28;20053;-68
2022/10/13 05:54:13;;;;;;;24.70;4.03;;;;;;;;;;5064283;28;20396;-68
2022/10/13 05:56:43;;;;;;;38.33;4.88;;;;;;;;;;5050544;28;20045;-69
2022/10/13 05:59:11;;;;;;;19.67;4.35;;;;;;;;;;5050718;28;20412;-69
2022/10/13 06:01:39;;;;;;;15.95;3.22;;;;;;;;;;5067910;28;20051;-68
2022/10/13 06:04:08;;;;;;;12.35;3.35;;;;;;;;;;5075111;28;20045;-68
2022/10/13 06:06:34;;;;;;;6.72;2.70;;;;;;;;;;5074696;28;20533;-69
2022/10/13 06:09:01;;;;;;;9.40;2.58;;;;;;;;;;5074575;28;20525;-68
2022/10/13 06:11:27;;;;;;;14.77;3.05;;;;;;;;;;5074927;28;20062;-68
2022/10/13 06:13:53;;;;;;;13.60;2.97;;;;;;;;;;5056167;28;20052;-69
2022/10/13 06:16:20;;;;;;;18.40;3.40;;;;;;;;;;5054417;28;20045;-70
2022/10/13 06:18:47;;;;;;;18.42;3.30;;;;;;;;;;5053773;28;20576;-68
2022/10/13 06:21:13;;;;;;;36.28;4.05;;;;;;;;;;5053979;28;20053;-68
2022/10/13 06:23:39;;;;;;;28.65;3.85;;;;;;;;;;5060299;28;20052;-68
2022/10/13 06:26:06;;;;;;;18.77;3.30;;;;;;;;;;5053929;28;20049;-68
2022/10/13 06:28:33;;;;;;;24.77;3.47;;;;;;;;;;5053909;28;20076;-68
2022/10/13 06:30:59;;;;;;;13.43;3.17;;;;;;;;;;5064562;28;20056;-68
2022/10/13 06:33:25;;;;;;;8.15;2.20;;;;;;;;;;5074384;28;20048;-68
2022/10/13 06:35:52;;;;;;;6.15;2.00;;;;;;;;;;5073679;28;20510;-68
2022/10/13 06:38:19;;;;;;;11.68;3.05;;;;;;;;;;5073892;28;20053;-68
2022/10/13 06:40:45;;;;;;;6.05;1.92;;;;;;;;;;5072974;28;20040;-69
2022/10/13 06:43:11;;;;;;;8.40;2.17;;;;;;;;;;5074005;28;20044;-68
2022/10/13 06:45:38;;;;;;;15.27;3.30;;;;;;;;;;5060968;28;20053;-69
2022/10/13 06:48:04;;;;;;;18.58;3.85;;;;;;;;;;5059631;28;20045;-65
2022/10/13 06:50:31;;;;;;;19.35;4.18;;;;;;;;;;5073945;28;20496;-69
2022/10/13 06:52:57;;;;;;;21.42;3.80;;;;;;;;;;5073913;28;20052;-68
2022/10/13 06:55:23;;;;;;;15.95;3.58;;;;;;;;;;5070184;28;20056;-68
2022/10/13 06:57:50;;;;;;;13.15;3.08;;;;;;;;;;5053859;28;20055;-69
2022/10/13 07:00:16;;;;;;;11.70;2.35;;;;;;;;;;5071668;28;20044;-69
2022/10/13 07:02:43;;;;;;;8.18;3.08;;;;;;;;;;5073474;28;20049;-69
2022/10/13 07:05:09;;;;;;;16.20;3.38;;;;;;;;;;5073780;28;20052;-69
2022/10/13 07:07:35;;;;;;;16.02;2.90;;;;;;;;;;5072867;28;20400;-69
2022/10/13 07:10:02;;;;;;;20.67;3.25;;;;;;;;;;5059233;28;20053;-69
2022/10/13 07:12:28;;;;;;;20.67;3.58;;;;;;;;;;5044882;28;20502;-69
2022/10/13 07:14:54;;;;;;;22.50;3.55;;;;;;;;;;5073819;28;20127;-69
2022/10/13 07:17:21;;;;;;;13.57;3.30;;;;;;;;;;5073441;28;20400;-69
2022/10/13 07:19:48;;;;;;;14.63;3.23;;;;;;;;;;5073465;28;20048;-69
2022/10/13 07:22:15;;;;;;;11.57;3.33;;;;;;;;;;5073410;28;20048;-69
2022/10/13 07:24:41;;;;;;;4.28;1.48;;;;;;;;;;5073250;28;20419;-69
2022/10/13 07:27:08;;;;;;;6.43;2.13;;;;;;;;;;5073220;28;20146;-69
2022/10/13 07:29:34;;;;;;;11.90;2.53;;;;;;;;;;5073409;28;20056;-69
2022/10/13 07:32:00;;;;;;;7.63;3.00;;;;;;;;;;5073448;28;20048;-69
2022/10/13 07:34:27;;;;;;;6.50;2.83;;;;;;;;;;5073008;28;20060;-69
2022/10/13 07:36:53;;;;;;;7.03;2.70;;;;;;;;;;5072939;28;20049;-69
2022/10/13 07:39:19;;;;;;;3.80;2.33;;;;;;;;;;5072929;28;20052;-69
2022/10/13 07:41:46;;;;;;;3.10;2.80;;;;;;;;;;5073102;28;20063;-69
2022/10/13 07:44:16;;;;;;;3.33;2.60;;;;;;;;;;5072887;28;20507;-69
2022/10/13 07:46:43;;;;;;;6.03;3.50;;;;;;;;;;5072825;28;20464;-69
2022/10/13 07:49:09;;;;;;;3.35;2.75;;;;;;;;;;5072781;28;20059;-68
2022/10/13 07:51:42;;;;;;;4.38;3.30;;;;;;;;;;5072896;28;20056;-69
2022/10/13 07:54:09;;;;;;;;;;;;;;;;;;5073484;28;20052;-69
2022/10/13 07:56:35;;;;;;;8.18;5.20;;;;;;;;;;5072774;28;19920;-69
2022/10/13 07:59:03;;;;;;;6.82;4.78;;;;;;;;;;5072714;28;20411;-69
2022/10/13 08:01:29;;;;;;;6.07;5.13;;;;;;;;;;5072466;28;20053;-69
2022/10/13 08:03:55;;;;;;;8.32;4.38;;;;;;;;;;5072766;28;20051;-69
2022/10/13 08:06:22;;;;;;;8.02;4.45;;;;;;;;;;5072472;28;20049;-69
2022/10/13 08:08:48;;;;;;;8.00;3.78;;;;;;;;;;5072313;28;20052;-69
2022/10/13 08:11:15;;;;;;;5.57;3.30;;;;;;;;;;5072543;28;20059;-69
2022/10/13 08:13:49;;;;;;;4.72;3.20;;;;;;;;;;5072557;28;20118;-69
2022/10/13 08:16:16;;;;;;;5.20;3.55;;;;;;;;;;5072507;28;20056;-69
2022/10/13 08:18:42;;;;;;;3.25;2.95;;;;;;;;;;5072432;28;20048;-69
2022/10/13 08:21:11;;;;;;;4.05;3.00;;;;;;;;;;5072429;28;20051;-69
2022/10/13 08:23:58;;;;;;;5.15;3.20;;;;;;;;;;5072217;28;20048;-69
2022/10/13 08:26:25;;;;;;;4.38;3.10;;;;;;;;;;5072152;28;20052;-69
2022/10/13 08:28:52;;;;;;;5.35;3.55;;;;;;;;;;5072155;28;20067;-69
2022/10/13 08:31:38;;;;;;;3.83;2.90;;;;;;;;;;5071965;28;20056;-69
2022/10/13 08:34:05;;;;;;;4.90;3.63;;;;;;;;;;5071714;28;20512;-69
2022/10/13 08:36:31;;;;;;;6.88;4.32;;;;;;;;;;5071757;28;20055;-69
2022/10/13 08:38:57;;;;;;;5.75;4.20;;;;;;;;;;5071917;28;20518;-69
2022/10/13 08:41:25;;;;;;;5.65;4.07;;;;;;;;;;5071881;28;20047;-69
2022/10/13 08:43:51;;;;;;;;;;;;;;;;;;5072561;28;20063;-69
2022/10/13 08:46:40;;;;;;;6.00;4.13;;;;;;;;;;5071709;28;19920;-69
2022/10/13 08:49:07;;;;;;;9.07;4.80;;;;;;;;;;5072116;28;20049;-69
2022/10/13 08:51:33;;;;;;;7.60;4.70;;;;;;;;;;5071788;28;20052;-69
2022/10/13 08:54:00;;;;;;;6.93;4.40;;;;;;;;;;5071860;28;20052;-69
2022/10/13 08:56:30;;;;;;;7.70;4.65;;;;;;;;;;5071550;28;20123;-69
2022/10/13 08:58:56;;;;;;;4.32;3.92;;;;;;;;;;5071864;28;20044;-69
2022/10/13 09:01:26;;;;;;;6.68;4.78;;;;;;;;;;5071962;28;20070;-69
2022/10/13 09:03:54;;;;;;;4.40;4.00;;;;;;;;;;5072151;28;20048;-70
2022/10/13 09:06:30;;;;;;;5.10;4.03;;;;;;;;;;5071677;28;20050;-69
2022/10/13 09:08:58;;;;;;;5.47;4.13;;;;;;;;;;5071771;28;20049;-69
2022/10/13 09:11:24;;;;;;;;;;;;;;;;;;5072182;28;20048;-69
2022/10/13 09:13:55;;;;;;;6.82;4.55;;;;;;;;;;5071791;28;19920;-69
2022/10/13 09:16:37;;;;;;;4.72;4.32;;;;;;;;;;5071423;28;20514;-69
2022/10/13 09:19:12;;;;;;;4.85;3.95;;;;;;;;;;5071569;28;20042;-69
2022/10/13 09:21:38;;;;;;;5.47;3.78;;;;;;;;;;5071453;28;20048;-69
2022/10/13 09:24:06;;;;;;;6.00;3.97;;;;;;;;;;5071375;28;20481;-69
2022/10/13 09:26:36;;;;;;;5.60;3.50;;;;;;;;;;5071635;28;20047;-69
2022/10/13 09:29:19;;;;;;;3.85;3.50;;;;;;;;;;5071418;28;20067;-69
2022/10/13 09:31:45;;;;;;;8.13;4.13;;;;;;;;;;5071244;28;20049;-69
2022/10/13 09:34:14;;;;;;;6.00;4.00;;;;;;;;;;5071342;28;20065;-69
2022/10/13 09:36:59;;;;;;;8.85;4.63;;;;;;;;;;5073349;28;20044;-69
2022/10/13 09:39:25;;;;;;;7.45;4.30;;;;;;;;;;5075275;28;20484;-69
2022/10/13 09:41:52;;;;;;;11.32;4.72;;;;;;;;;;5075500;28;20079;-69
2022/10/13 09:44:26;;;;;;;8.05;4.60;;;;;;;;;;5075423;28;20406;-69
2022/10/13 09:46:57;;;;;;;8.65;5.47;;;;;;;;;;5075287;28;20135;-69
2022/10/13 09:49:29;;;;;;;9.65;5.50;;;;;;;;;;5075383;28;20049;-69
2022/10/13 09:52:16;;;;;;;11.75;5.47;;;;;;;;;;5075011;28;20396;-69
2022/10/13 09:54:57;;;;;;;7.32;5.10;;;;;;;;;;5075315;28;20056;-69
2022/10/13 09:57:41;;;;;;;6.05;4.22;;;;;;;;;;5074843;28;20484;-69
2022/10/13 10:00:11;;;;;;;7.35;4.70;;;;;;;;;;5074866;28;20040;-69
2022/10/13 10:02:44;;;;;;;9.57;4.97;;;;;;;;;;5075137;28;20045;-69
2022/10/13 10:05:17;;;;;;;9.95;5.10;;;;;;;;;;5074664;28;20510;-69
2022/10/13 10:07:44;;;;;;;8.18;4.38;;;;;;;;;;5074779;28;20044;-69
2022/10/13 10:10:17;;;;;;;7.75;4.30;;;;;;;;;;5074651;28;20544;-69
2022/10/13 10:12:44;;;;;;;8.85;4.38;;;;;;;;;;5074952;28;20052;-69
2022/10/13 10:15:22;;;;;;;6.43;4.30;;;;;;;;;;5074736;28;20045;-69
2022/10/13 10:17:53;;;;;;;8.52;3.30;;;;;;;;;;5074459;28;20499;-69
2022/10/13 10:20:38;;;;;;;8.93;3.75;;;;;;;;;;5074736;28;20054;-69
2022/10/13 10:23:04;;;;;;;8.43;4.10;;;;;;;;;;5074353;28;20488;-69
2022/10/13 10:25:40;;;;;;;9.07;4.28;;;;;;;;;;5074468;28;20063;-69
2022/10/13 10:28:07;;;;;;;8.00;3.95;;;;;;;;;;5074314;28;20044;-69
2022/10/13 10:30:35;;;;;;;9.38;4.47;;;;;;;;;;5074270;28;20063;-68
2022/10/13 10:33:05;;;;;;;8.88;4.70;;;;;;;;;;5074520;28;20071;-69
2022/10/13 10:35:37;;;;;;;7.75;4.03;;;;;;;;;;5074140;28;20083;-68
2022/10/13 10:38:19;;;;;;;9.32;4.95;;;;;;;;;;5074102;28;20041;-69
2022/10/13 10:40:54;;;;;;;11.13;4.85;;;;;;;;;;5074152;28;20078;-68
2022/10/13 10:43:40;;;;;;;9.25;5.38;;;;;;;;;;5074069;28;20058;-69
2022/10/13 10:46:27;;;;;;;11.73;5.13;;;;;;;;;;5074456;28;20045;-69
2022/10/13 10:48:56;;;;;;;9.02;4.45;;;;;;;;;;5073062;28;20385;-69
2022/10/13 10:51:25;;;;;;;10.75;5.18;;;;;;;;;;5074242;28;20455;-69
2022/10/13 10:54:08;;;;;;;10.82;5.53;;;;;;;;;;5073876;28;20063;-69
2022/10/13 10:56:37;;;;;;;9.45;6.63;;;;;;;;;;5073746;28;20415;-69
2022/10/13 10:59:21;;;;;;;10.00;6.60;;;;;;;;;;5074066;28;20045;-69
2022/10/13 11:01:53;;;;;;;12.07;6.13;;;;;;;;;;5073893;28;20410;-69
2022/10/13 11:04:43;;;;;;;10.90;6.65;;;;;;;;;;5073898;28;20420;-69
2022/10/13 11:07:13;;;;;;;13.95;7.70;;;;;;;;;;5068160;28;20059;-69
2022/10/13 11:09:42;;;;;;;12.70;7.82;;;;;;;;;;5073903;28;20051;-69
2022/10/13 11:12:18;;;;;;;12.85;8.93;;;;;;;;;;5073764;28;20131;-69
2022/10/13 11:14:45;;;;;;;13.85;7.93;;;;;;;;;;5073689;28;20052;-69
2022/10/13 11:17:28;;;;;;;13.40;9.15;;;;;;;;;;5072244;28;20048;-69
2022/10/13 11:19:55;;;;;;;11.13;7.40;;;;;;;;;;5073453;28;20051;-69
2022/10/13 11:22:23;;;;;;;10.93;6.70;;;;;;;;;;5073255;28;20049;-69
2022/10/13 11:24:51;;;;;;;12.82;6.43;;;;;;;;;;5073237;28;20045;-69
2022/10/13 11:27:18;;;;;;;8.90;5.68;;;;;;;;;;5073518;28;20377;-67
2022/10/13 11:29:52;;;;;;;10.18;5.68;;;;;;;;;;5073436;28;20060;-67
2022/10/13 11:32:25;;;;;;;9.32;6.00;;;;;;;;;;5073111;28;20057;-67
2022/10/13 11:34:57;;;;;;;13.38;7.00;;;;;;;;;;5072733;28;20052;-66
2022/10/13 11:37:27;;;;;;;9.77;7.00;;;;;;;;;;5072983;28;20044;-67
2022/10/13 11:40:03;;;;;;;9.65;7.43;;;;;;;;;;5072973;28;20472;-66
2022/10/13 11:42:56;;;;;;;12.32;8.45;;;;;;;;;;5072974;28;20499;-66
2022/10/13 11:45:40;;;;;;;10.43;8.68;;;;;;;;;;5071747;28;20472;-66
2022/10/13 11:48:25;;;;;;;12.20;8.10;;;;;;;;;;5072904;28;20056;-66
2022/10/13 11:51:07;;;;;;;9.45;6.70;;;;;;;;;;5073113;28;20404;-69
2022/10/13 11:53:49;;;;;;;8.98;6.35;;;;;;;;;;5073004;28;20151;-66
2022/10/13 11:56:36;;;;;;;8.13;5.43;;;;;;;;;;5073025;28;20052;-67
2022/10/13 11:59:18;;;;;;;7.38;5.20;;;;;;;;;;5066226;28;20051;-67
2022/10/13 12:01:44;;;;;;;7.20;4.97;;;;;;;;;;5072418;28;20047;-66
2022/10/13 12:04:14;;;;;;;7.50;4.65;;;;;;;;;;5072826;28;20407;-66
2022/10/13 12:06:41;;;;;;;8.70;5.18;;;;;;;;;;5072473;28;20510;-67
2022/10/13 12:09:18;;;;;;;7.15;4.40;;;;;;;;;;5072366;28;20041;-67
2022/10/13 12:11:44;;;;;;;8.35;4.40;;;;;;;;;;5072327;28;20047;-66
2022/10/13 12:14:19;;;;;;;7.47;4.00;;;;;;;;;;5072267;28;20047;-66
2022/10/13 12:16:53;;;;;;;6.57;4.20;;;;;;;;;;5072547;28;20404;-66
2022/10/13 12:19:26;;;;;;;8.18;4.93;;;;;;;;;;5072573;28;20045;-66
2022/10/13 12:21:54;;;;;;;8.07;4.70;;;;;;;;;;5072162;28;20514;-66
2022/10/13 12:24:22;;;;;;;7.15;4.25;;;;;;;;;;5071988;28;20049;-66
2022/10/13 12:26:49;;;;;;;7.03;4.13;;;;;;;;;;5072064;28;20044;-66
2022/10/13 12:29:16;;;;;;;7.47;4.35;;;;;;;;;;5072330;28;20053;-66
2022/10/13 12:31:44;;;;;;;7.10;4.35;;;;;;;;;;5071982;28;20549;-66
2022/10/13 12:34:22;;;;;;;7.15;4.18;;;;;;;;;;5072013;28;20055;-66
2022/10/13 12:36:53;;;;;;;7.35;4.45;;;;;;;;;;5071860;28;20484;-65
2022/10/13 12:39:23;;;;;;;8.95;4.53;;;;;;;;;;5071996;28;20048;-68
2022/10/13 12:41:50;;;;;;;8.15;4.28;;;;;;;;;;5071846;28;20048;-68
2022/10/13 12:44:19;;;;;;;7.18;4.30;;;;;;;;;;5071887;28;20040;-69
2022/10/13 12:46:47;;;;;;;7.38;4.65;;;;;;;;;;5071816;28;20048;-66
2022/10/13 12:49:18;;;;;;;6.88;4.85;;;;;;;;;;5071782;28;20086;-66
2022/10/13 12:52:09;;;;;;;8.15;5.07;;;;;;;;;;5071680;28;20049;-68
2022/10/13 12:54:37;;;;;;;6.60;4.60;;;;;;;;;;5071659;28;20060;-68
2022/10/13 12:57:06;;;;;;;7.72;4.35;;;;;;;;;;5071782;28;20735;-66
2022/10/13 12:59:33;;;;;;;7.50;4.45;;;;;;;;;;5071943;28;20267;-66
2022/10/13 13:02:01;;;;;;;6.03;4.13;;;;;;;;;;5071837;28;20051;-66
2022/10/13 13:04:29;;;;;;;5.28;3.65;;;;;;;;;;5071871;28;20510;-66
2022/10/13 13:06:56;;;;;;;6.38;4.05;;;;;;;;;;5071488;28;20056;-67
2022/10/13 13:09:23;;;;;;;8.32;3.90;;;;;;;;;;5062999;28;20056;-66
2022/10/13 13:12:03;;;;;;;5.10;3.45;;;;;;;;;;5064778;28;20053;-66
2022/10/13 13:14:33;;;;;;;5.57;3.75;;;;;;;;;;5071843;28;20044;-66
2022/10/13 13:17:02;;;;;;;7.15;3.65;;;;;;;;;;5071701;28;20439;-66
2022/10/13 13:19:33;;;;;;;7.35;3.67;;;;;;;;;;5071797;28;20044;-66
2022/10/13 13:21:59;;;;;;;6.10;3.30;;;;;;;;;;5070249;28;20041;-66
2022/10/13 13:24:25;;;;;;;4.43;3.28;;;;;;;;;;5071446;28;20044;-66
2022/10/13 13:27:13;;;;;;;5.70;3.60;;;;;;;;;;5071378;28;20127;-66
2022/10/13 13:29:39;;;;;;;5.72;3.17;;;;;;;;;;5071698;28;20051;-66
2022/10/13 13:32:09;;;;;;;4.32;3.13;;;;;;;;;;5071649;28;20055;-66
2022/10/13 13:34:35;;;;;;;6.13;3.15;;;;;;;;;;5071062;28;20411;-66
2022/10/13 13:37:02;;;;;;;5.10;3.65;;;;;;;;;;5071485;28;20051;-66
2022/10/13 13:39:28;;;;;;;5.47;3.05;;;;;;;;;;5071286;28;20049;-68
2022/10/13 13:41:55;;;;;;;5.18;3.30;;;;;;;;;;5071207;28;20052;-68
2022/10/13 13:44:21;;;;;;;5.55;3.47;;;;;;;;;;5071596;28;20048;-68
2022/10/13 13:46:47;;;;;;;5.60;3.20;;;;;;;;;;5071436;28;20056;-68
2022/10/13 13:49:14;;;;;;;8.30;3.50;;;;;;;;;;5071410;28;20052;-66
2022/10/13 13:51:40;;;;;;;5.43;3.72;;;;;;;;;;5071444;28;20404;-66
2022/10/13 13:54:06;;;;;;;5.40;3.22;;;;;;;;;;5070257;28;20052;-66
2022/10/13 13:56:33;;;;;;;6.07;3.30;;;;;;;;;;5071399;28;20076;-66
2022/10/13 13:58:59;;;;;;;5.90;3.00;;;;;;;;;;5071188;28;20052;-66
2022/10/13 14:01:25;;;;;;;5.10;3.20;;;;;;;;;;5071184;28;20048;-66
2022/10/13 14:03:52;;;;;;;5.05;3.08;;;;;;;;;;5071102;28;20044;-66
2022/10/13 14:06:19;;;;;;;5.57;2.78;;;;;;;;;;5071398;28;20052;-66
2022/10/13 14:08:45;;;;;;;5.70;3.05;;;;;;;;;;5071181;28;20415;-66
2022/10/13 14:11:12;;;;;;;5.78;2.92;;;;;;;;;;5071223;28;20091;-66
2022/10/13 14:13:38;;;;;;;7.70;3.35;;;;;;;;;;5071153;28;20049;-66
2022/10/13 14:16:04;;;;;;;5.88;2.85;;;;;;;;;;5071151;28;20045;-66
2022/10/13 14:18:31;;;;;;;6.60;3.00;;;;;;;;;;5071201;28;20452;-68
2022/10/13 14:20:57;;;;;;;5.60;2.90;;;;;;;;;;5070977;28;20044;-66
2022/10/13 14:23:24;;;;;;;4.78;3.15;;;;;;;;;;5073776;28;20054;-66
2022/10/13 14:25:50;;;;;;;4.57;2.72;;;;;;;;;;5074493;28;20484;-66
2022/10/13 14:28:16;;;;;;;6.10;3.30;;;;;;;;;;5074352;28;20051;-66
2022/10/13 14:30:44;;;;;;;4.28;2.88;;;;;;;;;;5074260;28;20067;-66
2022/10/13 14:33:10;;;;;;;4.85;3.40;;;;;;;;;;5074285;28;20484;-66
2022/10/13 14:35:36;;;;;;;5.47;3.30;;;;;;;;;;5074102;28;20053;-66
2022/10/13 14:38:03;;;;;;;5.47;3.33;;;;;;;;;;5074384;28;20044;-66
2022/10/13 14:40:29;;;;;;;6.80;3.50;;;;;;;;;;5074190;28;20484;-66
2022/10/13 14:42:55;;;;;;;5.45;3.45;;;;;;;;;;5074148;28;20053;-67
2022/10/13 14:45:22;;;;;;;6.00;3.20;;;;;;;;;;5074418;28;20044;-66
2022/10/13 14:47:50;;;;;;;6.63;3.47;;;;;;;;;;5074161;28;20048;-66
2022/10/13 14:50:16;;;;;;;6.60;3.75;;;;;;;;;;5074033;28;20052;-66
2022/10/13 14:52:43;;;;;;;6.38;3.67;;;;;;;;;;5073962;28;20075;-66